• Join FlightAware (Why Join?)
  • Login
  • US Flag 
09:16PM EST


 

Airport Tracker/Info


-or-


 

Live Flight TrackerFlight Track Log ✈ N9955V ✈ 19-Jul-2014 ✈ KSUA - KTMB

Flight Track Log - Related Links

Times and Time Zones

All times are in EDT time to prevent confusion due to time zone crossing. See the N9955V flight status page for this flight to view local times or setup timezone preferences in your user account.

Time Position Orientation Groundspeed Altitude Reporting Facility
EDT Latitude Longitude Course Direction KTS MPH feet Rate Location/Type
09:09PM 27.1142 -80.1831 186° South 80 92 2,300  Level Miami Center
09:10PM 27.0894 -80.1767 167° South 90 104 2,900 540 Climbing Miami Center
09:11PM 27.0628 -80.1722 172° South 92 106 3,500 360 Climbing Miami Center
09:12PM 27.0342 -80.1631 164° South 104 120 3,700  Climbing Miami Center
09:13PM 27.0069 -80.1575 170° South 109 125 3,600 -60 Descending Miami Center
09:14PM 26.9163 -80.2584 186° South  Level Estimated
09:14PM 26.9747 -80.1447 161° South 111 128 3,600  Level Miami Center
09:15PM 26.9436 -80.1403 173° South 110 127 3,600  Level Miami Center
09:16PM 26.9150 -80.1358 172° South 108 124 3,600  Level Miami Center
09:17PM 26.8833 -80.1331 176° South 108 124 3,600  Level Miami Center
09:18PM 26.8550 -80.1275 170° South 102 117 3,600  Level Miami Center
09:19PM 26.8289 -80.1222 170° South 100 115 3,600  Level Miami Center
09:20PM 26.8017 -80.1172 171° South 96 110 3,600  Level Miami Center
09:21PM 26.7747 -80.1131 172° South 95 109 3,600  Level Miami Center
09:22PM 26.7478 -80.1081 171° South 95 109 3,600  Level Miami Center
09:23PM 26.7222 -80.1006 165° South 97 112 3,600  Level Miami Center
09:24PM 26.6950 -80.0944 169° South 99 114 3,600  Level Miami Center
09:25PM 26.6658 -80.0875 168° South 99 114 3,600  Level Miami Center
09:26PM 26.6394 -80.0783 163° South 100 115 3,600  Level Miami Center
09:27PM 26.6083 -80.0717 169° South 112 129 3,600  Level Miami Center
09:28PM 26.5769 -80.0725 181° South 108 124 3,600 -120 Level Miami Center
09:29PM 26.5506 -80.0803 195° South 100 115 3,400 -60 Descending Miami Center
09:30PM 26.5189 -80.0833 185° South 101 116 3,500  Climbing Miami Center
09:31PM 26.4956 -80.0822 178° South 93 107 3,500  Level Miami Center
09:31PM 26.4872 -80.0833 187° South 94 108 3,500  Level Miami Center
09:32PM 26.4683 -80.0839 182° South 94 108 3,500  Level Miami Center
09:33PM 26.4369 -80.0864 184° South 91 105 3,600  Climbing Miami Center
09:34PM 26.4092 -80.0936 193° South 95 109 3,600 -60 Level Miami Center
09:35PM 26.3817 -80.0986 189° South 101 116 3,500 -60 Descending Miami Center
09:36PM 26.3606 -80.1006 185° South 97 112 3,500 60 Level Miami Center
09:36PM 26.3542 -80.1036 203° Southwest 98 113 3,600  Climbing Miami Center
09:37PM 26.3342 -80.1064 187° South 97 112 3,500  Descending Miami Center
09:37PM 26.3289 -80.1061 177° South 94 108 3,600  Climbing Miami Center
09:38PM 26.3069 -80.1106 190° South 90 104 3,500 -240 Descending Miami Center
09:38PM 26.3033 -80.1114 192° South 93 107 3,400 -420 Descending Miami Center
09:39PM 26.2794 -80.1144 187° South 97 112 3,100 -420 Descending Miami Center
09:39PM 26.2739 -80.1158 193° South 101 116 3,000 -420 Descending Miami Center
09:40PM 26.2531 -80.1175 184° South 97 112 2,700 -420 Descending Miami Center
09:40PM 26.2464 -80.1186 189° South 94 108 2,600 -120 Descending Miami Center
09:41PM 26.2278 -80.1197 183° South 92 106 2,600 -60 Level Miami Center
09:42PM 26.2019 -80.1250 190° South 92 106 2,500 -60 Descending Miami Center
09:43PM 26.1744 -80.1294 188° South 90 104 2,500  Level Miami Center
09:44PM 26.1492 -80.1344 190° South 90 104 2,500  Level Miami Center
09:45PM 26.1278 -80.1403 194° South 91 105 2,500  Level Miami Center
09:46PM 26.1042 -80.1456 191° South 90 104 2,600  Climbing Miami Center
09:47PM 26.0803 -80.1481 185° South 89 102 2,600  Level Miami Center
09:48PM 26.0572 -80.1622 209° Southwest 99 114 2,600  Level Miami Center
09:49PM 26.0450 -80.1831 237° Southwest 94 108 2,700  Climbing Miami Center
09:50PM 26.0278 -80.2069 231° Southwest 98 113 2,600 -180 Descending Miami Center
09:52PM 26.0125 -80.2317 235° Southwest 98 113 2,400 -300 Descending Miami Center
09:53PM 25.9961 -80.2611 238° Southwest 97 112 2,000 -240 Descending Miami Center
09:54PM 25.9822 -80.2858 238° Southwest 96 110 2,000  Level Miami Center
09:55PM 25.9703 -80.3128 244° Southwest 96 110 2,000  Level Miami Center
09:56PM 25.9581 -80.3400 243° Southwest 99 114 2,000  Level Miami Center
09:57PM 25.9439 -80.3689 241° Southwest 100 115 2,100 -180 Climbing Miami Center
09:58PM 25.9292 -80.3911 234° Southwest 97 112 1,700 -300 Descending Miami Center
09:59PM 25.9125 -80.4150 232° Southwest 97 112 1,500 -180 Descending Miami Center
09:59PM 25.9067 -80.4239 234° Southwest 97 112 1,500 60 Level Miami Center
10:00PM 25.8975 -80.4378 234° Southwest 94 108 1,600  Climbing Miami Center
10:01PM 25.8781 -80.4575 222° Southwest 94 108 1,600  Level Miami Center
10:02PM 25.8533 -80.4731 210° Southwest 89 102 1,700 -60 Climbing Miami Center
10:03PM 25.8275 -80.4850 203° Southwest 96 110 1,500 -120 Descending Miami Center
10:04PM 25.8011 -80.5014 209° Southwest 100 115 1,500  Level Miami Center
10:05PM 25.7792 -80.5086 197° South 93 107 1,500  Level Miami Center
10:06PM 25.7497 -80.5181 196° South 100 115 1,600  Climbing Miami Center
10:07PM 25.7244 -80.5231 190° South 97 112 1,600  Level Miami Center
10:08PM 25.6972 -80.5231 180° South 96 110 1,600 -60 Level Miami Center
10:09PM 25.6747 -80.5131 158° South 94 108 1,500 -300 Descending Miami Center
10:10PM 25.6575 -80.4900 130° Southeast 75 86 1,000 -480 Descending Miami Center
10:11PM 25.6506 -80.4664 108° East 74 85 500 -360 Descending Miami Center
10:12PM 25.6494 -80.4419 93° East 84 97 400  Descending Miami Center
10:13PM 25.6539 -80.4133 80° East 95 109 600 300 Climbing Miami Center
10:14PM 25.6525 -80.4017 98° East 70 81 1,100 300 Climbing Miami Center
10:15PM 25.6711 -80.4056 349° North 102 117 1,100  Level Miami Center